sensor_id;sensor_type;location;lat;lon;timestamp;temperature;humidity
71173;DHT22;58875;51.996;4.504;2023-02-26T00:01:26;4.20;67.51
71173;DHT22;58875;51.996;4.504;2023-02-26T00:03:55;4.21;67.52
71173;DHT22;58875;51.996;4.504;2023-02-26T00:06:22;4.21;67.96
71173;DHT22;58875;51.996;4.504;2023-02-26T00:08:48;4.19;68.20
71173;DHT22;58875;51.996;4.504;2023-02-26T00:11:14;4.14;68.37
71173;DHT22;58875;51.996;4.504;2023-02-26T00:13:42;4.17;68.51
71173;DHT22;58875;51.996;4.504;2023-02-26T00:18:50;4.10;68.62
71173;DHT22;58875;51.996;4.504;2023-02-26T00:21:18;4.05;68.71
71173;DHT22;58875;51.996;4.504;2023-02-26T00:23:44;4.07;68.84
71173;DHT22;58875;51.996;4.504;2023-02-26T00:26:10;4.03;69.04
71173;DHT22;58875;51.996;4.504;2023-02-26T00:28:36;4.05;69.26
71173;DHT22;58875;51.996;4.504;2023-02-26T00:31:02;4.02;69.43
71173;DHT22;58875;51.996;4.504;2023-02-26T00:33:28;4.03;69.43
71173;DHT22;58875;51.996;4.504;2023-02-26T00:36:43;4.02;69.62
71173;DHT22;58875;51.996;4.504;2023-02-26T00:41:45;3.95;69.84
71173;DHT22;58875;51.996;4.504;2023-02-26T00:44:11;3.93;69.90
71173;DHT22;58875;51.996;4.504;2023-02-26T00:49:39;3.90;
71173;DHT22;58875;51.996;4.504;2023-02-26T00:52:18;3.87;69.99
71173;DHT22;58875;51.996;4.504;2023-02-26T00:54:45;3.92;69.67
71173;DHT22;58875;51.996;4.504;2023-02-26T00:57:11;3.93;69.36
71173;DHT22;58875;51.996;4.504;2023-02-26T00:59:36;3.96;69.34
71173;DHT22;58875;51.996;4.504;2023-02-26T01:02:02;4.05;69.08
71173;DHT22;58875;51.996;4.504;2023-02-26T01:04:27;4.09;68.84
71173;DHT22;58875;51.996;4.504;2023-02-26T01:06:55;4.11;69.09
71173;DHT22;58875;51.996;4.504;2023-02-26T01:09:33;4.16;68.96
71173;DHT22;58875;51.996;4.504;2023-02-26T01:12:06;4.16;68.84
71173;DHT22;58875;51.996;4.504;2023-02-26T01:14:33;4.20;68.73
71173;DHT22;58875;51.996;4.504;2023-02-26T01:17:25;4.17;68.97
71173;DHT22;58875;51.996;4.504;2023-02-26T01:20:01;4.19;69.08
71173;DHT22;58875;51.996;4.504;2023-02-26T01:22:38;4.20;69.09
71173;DHT22;58875;51.996;4.504;2023-02-26T01:25:15;4.20;69.12
71173;DHT22;58875;51.996;4.504;2023-02-26T01:27:43;4.17;68.91
71173;DHT22;58875;51.996;4.504;2023-02-26T01:30:09;4.10;69.00
71173;DHT22;58875;51.996;4.504;2023-02-26T01:35:12;4.03;68.67
71173;DHT22;58875;51.996;4.504;2023-02-26T01:38:02;4.05;68.44
71173;DHT22;58875;51.996;4.504;2023-02-26T01:43:22;3.99;68.31
71173;DHT22;58875;51.996;4.504;2023-02-26T01:48:42;3.97;68.26
71173;DHT22;58875;51.996;4.504;2023-02-26T01:51:11;3.92;68.20
71173;DHT22;58875;51.996;4.504;2023-02-26T01:53:37;3.95;68.11
71173;DHT22;58875;51.996;4.504;2023-02-26T01:56:11;3.90;68.23
71173;DHT22;58875;51.996;4.504;2023-02-26T01:58:38;3.89;68.27
71173;DHT22;58875;51.996;4.504;2023-02-26T02:01:05;3.87;68.27
71173;DHT22;58875;51.996;4.504;2023-02-26T02:03:34;3.79;68.35
71173;DHT22;58875;51.996;4.504;2023-02-26T02:06:18;3.65;68.79
71173;DHT22;58875;51.996;4.504;2023-02-26T02:08:45;3.58;68.93
71173;DHT22;58875;51.996;4.504;2023-02-26T02:11:12;3.56;69.03
71173;DHT22;58875;51.996;4.504;2023-02-26T02:16:22;3.39;69.23
71173;DHT22;58875;51.996;4.504;2023-02-26T02:24:48;3.25;69.53
71173;DHT22;58875;51.996;4.504;2023-02-26T02:33:03;3.17;69.30
71173;DHT22;58875;51.996;4.504;2023-02-26T02:35:41;3.15;69.26
71173;DHT22;58875;51.996;4.504;2023-02-26T02:38:17;3.06;69.25
71173;DHT22;58875;51.996;4.504;2023-02-26T02:40:51;3.01;69.29
71173;DHT22;58875;51.996;4.504;2023-02-26T02:43:23;2.99;69.06
71173;DHT22;58875;51.996;4.504;2023-02-26T02:46:00;2.96;68.79
71173;DHT22;58875;51.996;4.504;2023-02-26T02:48:39;2.90;68.64
71173;DHT22;58875;51.996;4.504;2023-02-26T02:51:10;2.84;68.85
71173;DHT22;58875;51.996;4.504;2023-02-26T02:57:05;2.80;68.99
71173;DHT22;58875;51.996;4.504;2023-02-26T02:59:42;2.77;69.20
71173;DHT22;58875;51.996;4.504;2023-02-26T03:02:35;2.75;69.23
71173;DHT22;58875;51.996;4.504;2023-02-26T03:05:02;2.75;69.20
71173;DHT22;58875;51.996;4.504;2023-02-26T03:07:34;2.73;69.35
71173;DHT22;58875;51.996;4.504;2023-02-26T03:10:01;2.71;69.43
71173;DHT22;58875;51.996;4.504;2023-02-26T03:12:30;2.69;69.44
71173;DHT22;58875;51.996;4.504;2023-02-26T03:14:56;2.63;69.26
71173;DHT22;58875;51.996;4.504;2023-02-26T03:18:29;2.57;69.29
71173;DHT22;58875;51.996;4.504;2023-02-26T03:20:24;2.53;69.37
71173;DHT22;58875;51.996;4.504;2023-02-26T03:25:54;2.55;69.52
71173;DHT22;58875;51.996;4.504;2023-02-26T03:28:40;2.55;69.40
71173;DHT22;58875;51.996;4.504;2023-02-26T03:34:09;2.53;69.48
71173;DHT22;58875;51.996;4.504;2023-02-26T03:36:54;2.49;69.50
71173;DHT22;58875;51.996;4.504;2023-02-26T03:39:37;2.48;69.50
71173;DHT22;58875;51.996;4.504;2023-02-26T03:45:46;2.46;68.82
71173;DHT22;58875;51.996;4.504;2023-02-26T03:47:53;2.44;68.97
71173;DHT22;58875;51.996;4.504;2023-02-26T03:50:34;2.45;68.61
71173;DHT22;58875;51.996;4.504;2023-02-26T03:53:05;2.45;68.41
71173;DHT22;58875;51.996;4.504;2023-02-26T03:58:32;2.46;67.32
71173;DHT22;58875;51.996;4.504;2023-02-26T04:01:05;2.46;67.13
71173;DHT22;58875;51.996;4.504;2023-02-26T04:03:39;2.45;67.18
71173;DHT22;58875;51.996;4.504;2023-02-26T04:06:07;2.49;66.74
71173;DHT22;58875;51.996;4.504;2023-02-26T04:08:33;2.48;66.58
71173;DHT22;58875;51.996;4.504;2023-02-26T04:11:07;2.46;66.48
71173;DHT22;58875;51.996;4.504;2023-02-26T04:13:34;2.41;66.63
71173;DHT22;58875;51.996;4.504;2023-02-26T04:16:00;2.39;66.56
71173;DHT22;58875;51.996;4.504;2023-02-26T04:18:26;2.34;66.75
71173;DHT22;58875;51.996;4.504;2023-02-26T04:20:51;2.32;66.77
71173;DHT22;58875;51.996;4.504;2023-02-26T04:23:17;2.31;67.01
71173;DHT22;58875;51.996;4.504;2023-02-26T04:25:44;2.35;66.80
71173;DHT22;58875;51.996;4.504;2023-02-26T04:28:10;2.34;66.73
71173;DHT22;58875;51.996;4.504;2023-02-26T04:30:36;2.34;66.80
71173;DHT22;58875;51.996;4.504;2023-02-26T04:33:01;2.39;66.40
71173;DHT22;58875;51.996;4.504;2023-02-26T04:35:27;2.41;66.53
71173;DHT22;58875;51.996;4.504;2023-02-26T04:37:52;2.36;66.44
71173;DHT22;58875;51.996;4.504;2023-02-26T04:40:18;2.34;66.77
71173;DHT22;58875;51.996;4.504;2023-02-26T04:42:44;2.28;66.72
71173;DHT22;58875;51.996;4.504;2023-02-26T04:45:09;2.34;66.67
71173;DHT22;58875;51.996;4.504;2023-02-26T04:47:35;2.26;66.50
71173;DHT22;58875;51.996;4.504;2023-02-26T04:50:01;2.28;66.59
71173;DHT22;58875;51.996;4.504;2023-02-26T04:52:26;2.26;66.81
71173;DHT22;58875;51.996;4.504;2023-02-26T04:54:52;2.22;66.99
71173;DHT22;58875;51.996;4.504;2023-02-26T04:57:17;2.17;67.36
71173;DHT22;58875;51.996;4.504;2023-02-26T04:59:43;2.21;67.16
71173;DHT22;58875;51.996;4.504;2023-02-26T05:02:09;2.20;67.24
71173;DHT22;58875;51.996;4.504;2023-02-26T05:04:34;2.21;67.21
71173;DHT22;58875;51.996;4.504;2023-02-26T05:07:00;2.17;67.30
71173;DHT22;58875;51.996;4.504;2023-02-26T05:09:25;2.15;67.30
71173;DHT22;58875;51.996;4.504;2023-02-26T05:11:51;2.14;67.28
71173;DHT22;58875;51.996;4.504;2023-02-26T05:14:17;2.15;67.21
71173;DHT22;58875;51.996;4.504;2023-02-26T05:16:42;2.15;67.22
71173;DHT22;58875;51.996;4.504;2023-02-26T05:19:08;2.17;67.20
71173;DHT22;58875;51.996;4.504;2023-02-26T05:21:34;2.12;67.17
71173;DHT22;58875;51.996;4.504;2023-02-26T05:23:59;2.08;67.10
71173;DHT22;58875;51.996;4.504;2023-02-26T05:26:25;2.08;67.37
71173;DHT22;58875;51.996;4.504;2023-02-26T05:28:51;2.04;67.57
71173;DHT22;58875;51.996;4.504;2023-02-26T05:31:16;2.04;67.49
71173;DHT22;58875;51.996;4.504;2023-02-26T05:33:42;2.00;67.54
71173;DHT22;58875;51.996;4.504;2023-02-26T05:36:08;1.95;67.69
71173;DHT22;58875;51.996;4.504;2023-02-26T05:38:34;1.85;68.14
71173;DHT22;58875;51.996;4.504;2023-02-26T05:41:00;1.84;68.34
71173;DHT22;58875;51.996;4.504;2023-02-26T05:43:26;1.75;68.40
71173;DHT22;58875;51.996;4.504;2023-02-26T05:45:53;1.80;68.36
71173;DHT22;58875;51.996;4.504;2023-02-26T05:48:20;1.78;68.54
71173;DHT22;58875;51.996;4.504;2023-02-26T05:50:47;1.74;68.47
71173;DHT22;58875;51.996;4.504;2023-02-26T05:53:24;1.75;68.50
71173;DHT22;58875;51.996;4.504;2023-02-26T05:55:52;1.73;68.45
71173;DHT22;58875;51.996;4.504;2023-02-26T05:58:17;1.67;68.63
71173;DHT22;58875;51.996;4.504;2023-02-26T06:00:43;1.64;68.62
71173;DHT22;58875;51.996;4.504;2023-02-26T06:03:09;1.62;68.79
71173;DHT22;58875;51.996;4.504;2023-02-26T06:05:34;1.63;68.98
71173;DHT22;58875;51.996;4.504;2023-02-26T06:08:01;1.60;69.06
71173;DHT22;58875;51.996;4.504;2023-02-26T06:10:26;1.53;69.34
71173;DHT22;58875;51.996;4.504;2023-02-26T06:12:52;1.52;69.64
71173;DHT22;58875;51.996;4.504;2023-02-26T06:15:17;1.47;69.78
71173;DHT22;58875;51.996;4.504;2023-02-26T06:17:43;1.46;69.74
71173;DHT22;58875;51.996;4.504;2023-02-26T06:20:09;1.40;69.79
71173;DHT22;58875;51.996;4.504;2023-02-26T06:22:35;1.42;69.87
71173;DHT22;58875;51.996;4.504;2023-02-26T06:25:01;1.38;70.08
71173;DHT22;58875;51.996;4.504;2023-02-26T06:27:26;1.28;70.28
71173;DHT22;58875;51.996;4.504;2023-02-26T06:29:52;1.26;70.65
71173;DHT22;58875;51.996;4.504;2023-02-26T06:32:17;1.28;71.00
71173;DHT22;58875;51.996;4.504;2023-02-26T06:34:43;1.26;71.17
71173;DHT22;58875;51.996;4.504;2023-02-26T06:37:08;1.25;71.38
71173;DHT22;58875;51.996;4.504;2023-02-26T06:39:34;1.23;71.64
71173;DHT22;58875;51.996;4.504;2023-02-26T06:41:59;1.28;71.70
71173;DHT22;58875;51.996;4.504;2023-02-26T06:44:25;1.29;71.84
71173;DHT22;58875;51.996;4.504;2023-02-26T06:46:51;1.33;71.66
71173;DHT22;58875;51.996;4.504;2023-02-26T06:49:16;1.35;71.65
71173;DHT22;58875;51.996;4.504;2023-02-26T06:51:42;1.36;71.54
71173;DHT22;58875;51.996;4.504;2023-02-26T06:54:07;1.35;71.68
71173;DHT22;58875;51.996;4.504;2023-02-26T06:56:33;1.39;71.59
71173;DHT22;58875;51.996;4.504;2023-02-26T06:58:59;1.33;71.58
71173;DHT22;58875;51.996;4.504;2023-02-26T07:01:24;1.44;71.60
71173;DHT22;58875;51.996;4.504;2023-02-26T07:03:50;1.42;71.47
71173;DHT22;58875;51.996;4.504;2023-02-26T07:06:16;1.46;71.44
71173;DHT22;58875;51.996;4.504;2023-02-26T07:08:41;1.52;71.24
71173;DHT22;58875;51.996;4.504;2023-02-26T07:11:07;1.59;71.27
71173;DHT22;58875;51.996;4.504;2023-02-26T07:13:36;1.56;71.40
71173;DHT22;58875;51.996;4.504;2023-02-26T07:16:05;1.57;71.38
71173;DHT22;58875;51.996;4.504;2023-02-26T07:18:35;1.56;71.33
71173;DHT22;58875;51.996;4.504;2023-02-26T07:21:02;1.66;71.26
71173;DHT22;58875;51.996;4.504;2023-02-26T07:23:28;1.70;71.07
71173;DHT22;58875;51.996;4.504;2023-02-26T07:25:54;1.80;70.99
71173;DHT22;58875;51.996;4.504;2023-02-26T07:28:21;1.81;70.86
71173;DHT22;58875;51.996;4.504;2023-02-26T07:30:46;1.83;70.88
71173;DHT22;58875;51.996;4.504;2023-02-26T07:33:12;1.88;70.52
71173;DHT22;58875;51.996;4.504;2023-02-26T07:35:38;1.91;70.21
71173;DHT22;58875;51.996;4.504;2023-02-26T07:38:04;1.93;69.94
71173;DHT22;58875;51.996;4.504;2023-02-26T07:40:30;1.98;69.81
71173;DHT22;58875;51.996;4.504;2023-02-26T07:42:57;2.07;69.12
71173;DHT22;58875;51.996;4.504;2023-02-26T07:45:22;2.17;68.65
71173;DHT22;58875;51.996;4.504;2023-02-26T07:47:50;2.26;67.33
71173;DHT22;58875;51.996;4.504;2023-02-26T07:50:16;2.35;66.85
71173;DHT22;58875;51.996;4.504;2023-02-26T07:52:41;2.89;66.10
71173;DHT22;58875;51.996;4.504;2023-02-26T07:57:33;3.62;62.26
71173;DHT22;58875;51.996;4.504;2023-02-26T07:59:58;3.93;60.77
71173;DHT22;58875;51.996;4.504;2023-02-26T08:02:24;4.30;58.62
71173;DHT22;58875;51.996;4.504;2023-02-26T08:04:50;4.60;58.62
71173;DHT22;58875;51.996;4.504;2023-02-26T08:07:16;4.75;57.36
71173;DHT22;58875;51.996;4.504;2023-02-26T08:09:42;5.02;55.85
71173;DHT22;58875;51.996;4.504;2023-02-26T08:12:07;5.44;55.43
71173;DHT22;58875;51.996;4.504;2023-02-26T08:14:33;6.18;52.70
71173;DHT22;58875;51.996;4.504;2023-02-26T08:16:58;6.56;51.62
71173;DHT22;58875;51.996;4.504;2023-02-26T08:19:24;6.90;50.18
71173;DHT22;58875;51.996;4.504;2023-02-26T08:21:49;6.50;51.51
71173;DHT22;58875;51.996;4.504;2023-02-26T08:24:15;6.28;51.76
71173;DHT22;58875;51.996;4.504;2023-02-26T08:26:40;6.42;51.97
71173;DHT22;58875;51.996;4.504;2023-02-26T08:29:06;6.94;50.07
71173;DHT22;58875;51.996;4.504;2023-02-26T08:31:32;7.03;49.11
71173;DHT22;58875;51.996;4.504;2023-02-26T08:33:59;7.89;47.28
71173;DHT22;58875;51.996;4.504;2023-02-26T08:36:24;8.22;44.79
71173;DHT22;58875;51.996;4.504;2023-02-26T08:38:50;8.81;43.04
71173;DHT22;58875;51.996;4.504;2023-02-26T08:41:16;8.74;43.30
71173;DHT22;58875;51.996;4.504;2023-02-26T08:43:42;8.76;42.03
71173;DHT22;58875;51.996;4.504;2023-02-26T08:46:08;8.44;42.77
71173;DHT22;58875;51.996;4.504;2023-02-26T08:48:33;8.79;41.93
71173;DHT22;58875;51.996;4.504;2023-02-26T08:50:59;8.72;41.76
71173;DHT22;58875;51.996;4.504;2023-02-26T08:53:25;7.90;44.27
71173;DHT22;58875;51.996;4.504;2023-02-26T08:55:52;7.04;45.82
71173;DHT22;58875;51.996;4.504;2023-02-26T08:58:18;6.25;47.28
71173;DHT22;58875;51.996;4.504;2023-02-26T09:00:45;5.71;49.34
71173;DHT22;58875;51.996;4.504;2023-02-26T09:03:11;5.11;50.87
71173;DHT22;58875;51.996;4.504;2023-02-26T09:05:37;4.88;51.12
71173;DHT22;58875;51.996;4.504;2023-02-26T09:08:03;4.72;51.95
71173;DHT22;58875;51.996;4.504;2023-02-26T09:10:28;4.71;52.38
71173;DHT22;58875;51.996;4.504;2023-02-26T09:12:54;4.69;52.71
71173;DHT22;58875;51.996;4.504;2023-02-26T09:17:45;4.50;52.22
71173;DHT22;58875;51.996;4.504;2023-02-26T09:20:13;4.71;53.13
71173;DHT22;58875;51.996;4.504;2023-02-26T09:22:39;4.67;52.39
71173;DHT22;58875;51.996;4.504;2023-02-26T09:25:06;4.72;51.43
71173;DHT22;58875;51.996;4.504;2023-02-26T09:27:32;4.81;51.45
71173;DHT22;58875;51.996;4.504;2023-02-26T09:29:58;4.84;51.07
71173;DHT22;58875;51.996;4.504;2023-02-26T09:32:24;4.95;51.33
71173;DHT22;58875;51.996;4.504;2023-02-26T09:34:51;5.12;51.36
71173;DHT22;58875;51.996;4.504;2023-02-26T09:37:16;5.08;51.09
71173;DHT22;58875;51.996;4.504;2023-02-26T09:39:43;5.07;50.85
71173;DHT22;58875;51.996;4.504;2023-02-26T09:44:47;5.26;51.02
71173;DHT22;58875;51.996;4.504;2023-02-26T09:47:55;5.39;51.06
71173;DHT22;58875;51.996;4.504;2023-02-26T09:50:22;5.44;50.24
71173;DHT22;58875;51.996;4.504;2023-02-26T09:53:28;5.56;49.97
71173;DHT22;58875;51.996;4.504;2023-02-26T09:56:12;5.40;48.87
71173;DHT22;58875;51.996;4.504;2023-02-26T09:58:40;5.29;49.98
71173;DHT22;58875;51.996;4.504;2023-02-26T10:01:31;5.32;48.89
71173;DHT22;58875;51.996;4.504;2023-02-26T10:09:57;5.50;49.61
71173;DHT22;58875;51.996;4.504;2023-02-26T10:12:28;5.46;47.87
71173;DHT22;58875;51.996;4.504;2023-02-26T10:15:27;5.44;48.50
71173;DHT22;58875;51.996;4.504;2023-02-26T10:21:16;5.70;49.01
71173;DHT22;58875;51.996;4.504;2023-02-26T10:23:43;5.87;48.03
71173;DHT22;58875;51.996;4.504;2023-02-26T10:26:38;5.95;48.35
71173;DHT22;58875;51.996;4.504;2023-02-26T10:29:36;6.00;47.50
71173;DHT22;58875;51.996;4.504;2023-02-26T10:32:32;6.19;48.22
71173;DHT22;58875;51.996;4.504;2023-02-26T10:35:05;6.17;47.40
71173;DHT22;58875;51.996;4.504;2023-02-26T10:37:56;6.01;47.45
71173;DHT22;58875;51.996;4.504;2023-02-26T10:51:39;6.52;46.89
71173;DHT22;58875;51.996;4.504;2023-02-26T10:54:18;6.56;46.98
71173;DHT22;58875;51.996;4.504;2023-02-26T10:56:46;6.50;46.58
71173;DHT22;58875;51.996;4.504;2023-02-26T10:59:12;6.49;46.97
71173;DHT22;58875;51.996;4.504;2023-02-26T11:01:38;6.60;47.65
71173;DHT22;58875;51.996;4.504;2023-02-26T11:04:07;6.53;47.70
71173;DHT22;58875;51.996;4.504;2023-02-26T11:06:41;6.66;48.20
71173;DHT22;58875;51.996;4.504;2023-02-26T11:09:28;6.57;47.22
71173;DHT22;58875;51.996;4.504;2023-02-26T11:12:04;6.72;47.79
71173;DHT22;58875;51.996;4.504;2023-02-26T11:14:34;7.00;48.37
71173;DHT22;58875;51.996;4.504;2023-02-26T11:17:06;7.20;46.33
71173;DHT22;58875;51.996;4.504;2023-02-26T11:19:38;7.03;46.96
71173;DHT22;58875;51.996;4.504;2023-02-26T11:22:05;7.05;46.28
71173;DHT22;58875;51.996;4.504;2023-02-26T11:24:46;7.14;47.13
71173;DHT22;58875;51.996;4.504;2023-02-26T11:27:17;7.03;47.45
71173;DHT22;58875;51.996;4.504;2023-02-26T11:29:48;7.15;46.48
71173;DHT22;58875;51.996;4.504;2023-02-26T11:32:21;7.07;47.05
71173;DHT22;58875;51.996;4.504;2023-02-26T11:34:50;7.08;48.17
71173;DHT22;58875;51.996;4.504;2023-02-26T11:37:23;7.01;45.98
71173;DHT22;58875;51.996;4.504;2023-02-26T11:39:57;6.96;46.76
71173;DHT22;58875;51.996;4.504;2023-02-26T11:42:25;6.84;47.05
71173;DHT22;58875;51.996;4.504;2023-02-26T11:44:51;6.84;47.00
71173;DHT22;58875;51.996;4.504;2023-02-26T11:47:26;6.84;46.65
71173;DHT22;58875;51.996;4.504;2023-02-26T11:50:01;6.97;46.59
71173;DHT22;58875;51.996;4.504;2023-02-26T11:52:42;7.14;47.66
71173;DHT22;58875;51.996;4.504;2023-02-26T11:55:19;7.20;46.65
71173;DHT22;58875;51.996;4.504;2023-02-26T11:57:45;7.20;47.20
71173;DHT22;58875;51.996;4.504;2023-02-26T12:00:22;7.17;46.73
71173;DHT22;58875;51.996;4.504;2023-02-26T12:02:48;7.18;46.24
71173;DHT22;58875;51.996;4.504;2023-02-26T12:05:16;7.20;46.60
71173;DHT22;58875;51.996;4.504;2023-02-26T12:07:43;7.27;46.28
71173;DHT22;58875;51.996;4.504;2023-02-26T12:10:23;7.38;47.02
71173;DHT22;58875;51.996;4.504;2023-02-26T12:13:11;7.30;45.67
71173;DHT22;58875;51.996;4.504;2023-02-26T12:15:51;7.25;45.80
71173;DHT22;58875;51.996;4.504;2023-02-26T12:21:32;7.69;46.78
71173;DHT22;58875;51.996;4.504;2023-02-26T12:24:51;8.06;45.86
71173;DHT22;58875;51.996;4.504;2023-02-26T12:27:33;8.09;45.80
71173;DHT22;58875;51.996;4.504;2023-02-26T12:30:39;8.24;46.16
71173;DHT22;58875;51.996;4.504;2023-02-26T12:33:24;8.36;45.15
71173;DHT22;58875;51.996;4.504;2023-02-26T12:36:05;8.36;45.04
71173;DHT22;58875;51.996;4.504;2023-02-26T12:38:41;8.24;44.86
71173;DHT22;58875;51.996;4.504;2023-02-26T12:44:25;7.58;46.10
71173;DHT22;58875;51.996;4.504;2023-02-26T12:47:31;7.22;48.04
71173;DHT22;58875;51.996;4.504;2023-02-26T12:50:28;7.21;48.22
71173;DHT22;58875;51.996;4.504;2023-02-26T12:52:57;7.42;47.90
71173;DHT22;58875;51.996;4.504;2023-02-26T12:56:00;7.45;47.62
71173;DHT22;58875;51.996;4.504;2023-02-26T13:10:05;7.48;47.92
71173;DHT22;58875;51.996;4.504;2023-02-26T13:13:03;7.61;47.16
71173;DHT22;58875;51.996;4.504;2023-02-26T13:24:02;7.58;47.68
71173;DHT22;58875;51.996;4.504;2023-02-26T13:26:31;7.63;48.53
71173;DHT22;58875;51.996;4.504;2023-02-26T13:29:19;7.65;48.54
71173;DHT22;58875;51.996;4.504;2023-02-26T13:34:38;7.78;48.09
71173;DHT22;58875;51.996;4.504;2023-02-26T13:37:30;7.82;47.94
71173;DHT22;58875;51.996;4.504;2023-02-26T13:49:16;7.72;49.66
71173;DHT22;58875;51.996;4.504;2023-02-26T13:51:48;8.07;48.57
71173;DHT22;58875;51.996;4.504;2023-02-26T13:56:46;7.72;48.53
71173;DHT22;58875;51.996;4.504;2023-02-26T14:06:47;7.81;46.92
71173;DHT22;58875;51.996;4.504;2023-02-26T14:14:39;8.12;47.61
71173;DHT22;58875;51.996;4.504;2023-02-26T14:22:19;7.94;48.06
71173;DHT22;58875;51.996;4.504;2023-02-26T14:27:37;8.03;46.56
71173;DHT22;58875;51.996;4.504;2023-02-26T14:30:24;7.81;46.61
71173;DHT22;58875;51.996;4.504;2023-02-26T14:35:42;7.76;47.63
71173;DHT22;58875;51.996;4.504;2023-02-26T14:38:20;7.65;47.58
71173;DHT22;58875;51.996;4.504;2023-02-26T14:41:28;7.75;47.68
71173;DHT22;58875;51.996;4.504;2023-02-26T14:44:10;7.90;47.14
71173;DHT22;58875;51.996;4.504;2023-02-26T14:46:38;8.00;46.87
71173;DHT22;58875;51.996;4.504;2023-02-26T14:49:14;7.82;46.94
71173;DHT22;58875;51.996;4.504;2023-02-26T14:52:08;7.94;46.13
71173;DHT22;58875;51.996;4.504;2023-02-26T14:57:52;7.87;48.26
71173;DHT22;58875;51.996;4.504;2023-02-26T15:03:37;7.83;46.92
71173;DHT22;58875;51.996;4.504;2023-02-26T15:09:21;7.75;47.06
71173;DHT22;58875;51.996;4.504;2023-02-26T15:20:28;7.62;45.30
71173;DHT22;58875;51.996;4.504;2023-02-26T15:27:56;7.63;46.72
71173;DHT22;58875;51.996;4.504;2023-02-26T15:30:23;7.47;45.12
71173;DHT22;58875;51.996;4.504;2023-02-26T15:32:55;7.40;45.21
71173;DHT22;58875;51.996;4.504;2023-02-26T15:35:21;7.42;46.13
71173;DHT22;58875;51.996;4.504;2023-02-26T15:37:53;7.38;46.03
71173;DHT22;58875;51.996;4.504;2023-02-26T15:40:20;7.32;45.67
71173;DHT22;58875;51.996;4.504;2023-02-26T15:42:51;7.31;45.37
71173;DHT22;58875;51.996;4.504;2023-02-26T15:45:24;7.38;46.16
71173;DHT22;58875;51.996;4.504;2023-02-26T15:47:55;7.28;46.78
71173;DHT22;58875;51.996;4.504;2023-02-26T15:50:29;7.17;46.72
71173;DHT22;58875;51.996;4.504;2023-02-26T15:52:59;7.15;48.59
71173;DHT22;58875;51.996;4.504;2023-02-26T15:55:25;7.21;47.81
71173;DHT22;58875;51.996;4.504;2023-02-26T15:57:53;7.15;48.68
71173;DHT22;58875;51.996;4.504;2023-02-26T16:00:21;7.20;48.84
71173;DHT22;58875;51.996;4.504;2023-02-26T16:02:52;7.13;47.61
71173;DHT22;58875;51.996;4.504;2023-02-26T16:05:22;7.13;48.48
71173;DHT22;58875;51.996;4.504;2023-02-26T16:07:48;7.08;48.95
71173;DHT22;58875;51.996;4.504;2023-02-26T16:10:27;6.91;49.44
71173;DHT22;58875;51.996;4.504;2023-02-26T16:12:54;6.89;48.79
71173;DHT22;58875;51.996;4.504;2023-02-26T16:15:30;6.76;47.27
71173;DHT22;58875;51.996;4.504;2023-02-26T16:18:03;6.75;47.71
71173;DHT22;58875;51.996;4.504;2023-02-26T16:20:40;6.76;48.58
71173;DHT22;58875;51.996;4.504;2023-02-26T16:25:50;6.68;49.71
71173;DHT22;58875;51.996;4.504;2023-02-26T16:28:22;6.70;49.98
71173;DHT22;58875;51.996;4.504;2023-02-26T16:30:53;6.69;50.85
71173;DHT22;58875;51.996;4.504;2023-02-26T16:33:23;6.59;51.52
71173;DHT22;58875;51.996;4.504;2023-02-26T16:36:01;6.56;51.60
71173;DHT22;58875;51.996;4.504;2023-02-26T16:38:32;6.52;51.81
71173;DHT22;58875;51.996;4.504;2023-02-26T16:41:11;6.42;52.45
71173;DHT22;58875;51.996;4.504;2023-02-26T16:46:14;6.38;52.29
71173;DHT22;58875;51.996;4.504;2023-02-26T16:51:16;6.29;53.03
71173;DHT22;58875;51.996;4.504;2023-02-26T16:53:56;6.18;53.63
71173;DHT22;58875;51.996;4.504;2023-02-26T16:56:35;6.17;52.88
71173;DHT22;58875;51.996;4.504;2023-02-26T16:59:27;6.19;53.58
71173;DHT22;58875;51.996;4.504;2023-02-26T17:01:55;6.10;53.76
71173;DHT22;58875;51.996;4.504;2023-02-26T17:04:25;6.05;53.93
71173;DHT22;58875;51.996;4.504;2023-02-26T17:06:53;6.04;54.52
71173;DHT22;58875;51.996;4.504;2023-02-26T17:09:46;6.01;54.82
71173;DHT22;58875;51.996;4.504;2023-02-26T17:12:23;5.98;55.42
71173;DHT22;58875;51.996;4.504;2023-02-26T17:14:59;5.93;55.85
71173;DHT22;58875;51.996;4.504;2023-02-26T17:17:26;5.87;56.02
71173;DHT22;58875;51.996;4.504;2023-02-26T17:19:55;5.87;56.42
71173;DHT22;58875;51.996;4.504;2023-02-26T17:25:18;5.77;57.11
71173;DHT22;58875;51.996;4.504;2023-02-26T17:27:47;5.70;57.63
71173;DHT22;58875;51.996;4.504;2023-02-26T17:30:22;5.69;58.03
71173;DHT22;58875;51.996;4.504;2023-02-26T17:32:58;5.63;58.26
71173;DHT22;58875;51.996;4.504;2023-02-26T17:35:29;5.63;58.50
71173;DHT22;58875;51.996;4.504;2023-02-26T17:37:58;5.60;58.67
71173;DHT22;58875;51.996;4.504;2023-02-26T17:40:33;5.59;58.86
71173;DHT22;58875;51.996;4.504;2023-02-26T17:43:01;5.51;58.80
71173;DHT22;58875;51.996;4.504;2023-02-26T17:45:29;5.42;59.20
71173;DHT22;58875;51.996;4.504;2023-02-26T17:47:55;5.39;59.22
71173;DHT22;58875;51.996;4.504;2023-02-26T17:50:37;5.32;59.42
71173;DHT22;58875;51.996;4.504;2023-02-26T17:53:05;5.30;59.17
71173;DHT22;58875;51.996;4.504;2023-02-26T17:55:32;5.22;59.47
71173;DHT22;58875;51.996;4.504;2023-02-26T17:58:00;5.22;59.55
71173;DHT22;58875;51.996;4.504;2023-02-26T18:00:26;5.26;59.24
71173;DHT22;58875;51.996;4.504;2023-02-26T18:02:51;5.19;59.19
71173;DHT22;58875;51.996;4.504;2023-02-26T18:05:18;5.19;59.22
71173;DHT22;58875;51.996;4.504;2023-02-26T18:07:46;5.13;59.66
71173;DHT22;58875;51.996;4.504;2023-02-26T18:10:21;5.09;59.57
71173;DHT22;58875;51.996;4.504;2023-02-26T18:12:47;5.02;59.97
71173;DHT22;58875;51.996;4.504;2023-02-26T18:15:21;5.04;60.23
71173;DHT22;58875;51.996;4.504;2023-02-26T18:17:52;5.02;60.04
71173;DHT22;58875;51.996;4.504;2023-02-26T18:23:54;4.99;60.42
71173;DHT22;58875;51.996;4.504;2023-02-26T18:26:23;4.93;61.07
71173;DHT22;58875;51.996;4.504;2023-02-26T18:28:50;4.93;61.41
71173;DHT22;58875;51.996;4.504;2023-02-26T18:31:16;4.98;61.50
71173;DHT22;58875;51.996;4.504;2023-02-26T18:33:57;4.93;61.95
71173;DHT22;58875;51.996;4.504;2023-02-26T18:36:39;4.87;62.58
71173;DHT22;58875;51.996;4.504;2023-02-26T18:39:13;4.81;62.96
71173;DHT22;58875;51.996;4.504;2023-02-26T18:41:46;4.75;63.60
71173;DHT22;58875;51.996;4.504;2023-02-26T18:47:45;4.71;63.92
71173;DHT22;58875;51.996;4.504;2023-02-26T18:50:13;4.64;64.15
71173;DHT22;58875;51.996;4.504;2023-02-26T18:52:45;4.58;64.63
71173;DHT22;58875;51.996;4.504;2023-02-26T18:55:46;4.58;64.85
71173;DHT22;58875;51.996;4.504;2023-02-26T18:58:36;4.54;65.24
71173;DHT22;58875;51.996;4.504;2023-02-26T19:01:03;4.56;65.28
71173;DHT22;58875;51.996;4.504;2023-02-26T19:03:37;4.58;65.32
71173;DHT22;58875;51.996;4.504;2023-02-26T19:06:05;4.51;65.62
71173;DHT22;58875;51.996;4.504;2023-02-26T19:08:34;4.48;65.77
71173;DHT22;58875;51.996;4.504;2023-02-26T19:11:00;4.44;66.04
71173;DHT22;58875;51.996;4.504;2023-02-26T19:13:48;4.41;66.11